sensor_id;sensor_type;location;lat;lon;timestamp;pressure;altitude;pressure_sealevel;temperature;humidity
14273;BME280;7220;49.450;11.052;2023-05-10T07:58:29;97652.34;;;16.53;95.64
14273;BME280;7220;49.450;11.052;2023-05-10T08:02:30;97645.06;;;16.65;92.30
14273;BME280;7220;49.450;11.052;2023-05-10T08:06:30;97660.03;;;16.68;91.49
14273;BME280;7220;49.450;11.052;2023-05-10T08:10:30;97650.56;;;16.64;90.34
14273;BME280;7220;49.450;11.052;2023-05-10T08:14:31;97663.88;;;16.44;90.82
14273;BME280;7220;49.450;11.052;2023-05-10T08:18:31;97655.66;;;16.36;90.04
14273;BME280;7220;49.450;11.052;2023-05-10T08:22:32;97659.13;;;16.27;89.58
14273;BME280;7220;49.450;11.052;2023-05-10T08:26:32;97662.81;;;16.26;89.31
14273;BME280;7220;49.450;11.052;2023-05-10T08:30:32;97672.03;;;16.33;88.87
14273;BME280;7220;49.450;11.052;2023-05-10T08:34:33;97667.34;;;16.35;88.50
14273;BME280;7220;49.450;11.052;2023-05-10T08:38:33;97664.03;;;16.43;88.13
14273;BME280;7220;49.450;11.052;2023-05-10T08:42:36;97665.22;;;16.60;87.04
14273;BME280;7220;49.450;11.052;2023-05-10T08:46:39;97675.38;;;16.56;87.94
14273;BME280;7220;49.450;11.052;2023-05-10T08:50:44;97656.34;;;16.59;86.65
14273;BME280;7220;49.450;11.052;2023-05-10T08:54:45;97671.66;;;16.47;86.05
14273;BME280;7220;49.450;11.052;2023-05-10T08:58:45;97674.03;;;16.19;90.66
14273;BME280;7220;49.450;11.052;2023-05-10T09:02:46;97690.75;;;15.90;95.44
14273;BME280;7220;49.450;11.052;2023-05-10T09:06:47;97710.06;;;15.61;100.00
14273;BME280;7220;49.450;11.052;2023-05-10T09:10:48;97719.66;;;15.09;100.00
14273;BME280;7220;49.450;11.052;2023-05-10T09:14:50;97704.22;;;14.67;100.00
14273;BME280;7220;49.450;11.052;2023-05-10T09:18:52;97706.44;;;14.38;100.00
14273;BME280;7220;49.450;11.052;2023-05-10T09:22:52;97699.69;;;14.56;100.00
14273;BME280;7220;49.450;11.052;2023-05-10T09:26:53;97698.44;;;14.60;100.00
14273;BME280;7220;49.450;11.052;2023-05-10T09:30:53;97704.09;;;14.80;100.00
14273;BME280;7220;49.450;11.052;2023-05-10T09:34:55;97695.56;;;15.09;100.00
14273;BME280;7220;49.450;11.052;2023-05-10T09:38:55;97700.63;;;15.35;100.00
14273;BME280;7220;49.450;11.052;2023-05-10T09:43:01;97698.31;;;15.41;100.00
14273;BME280;7220;49.450;11.052;2023-05-10T09:47:02;97710.94;;;15.51;100.00
14273;BME280;7220;49.450;11.052;2023-05-10T09:51:02;97709.19;;;15.72;100.00
14273;BME280;7220;49.450;11.052;2023-05-10T09:55:03;97683.97;;;15.86;100.00
14273;BME280;7220;49.450;11.052;2023-05-10T09:59:05;97691.50;;;16.14;100.00
14273;BME280;7220;49.450;11.052;2023-05-10T10:03:07;97682.53;;;16.24;100.00
14273;BME280;7220;49.450;11.052;2023-05-10T10:07:11;97680.69;;;16.46;100.00
14273;BME280;7220;49.450;11.052;2023-05-10T10:11:12;97682.38;;;16.68;99.73
14273;BME280;7220;49.450;11.052;2023-05-10T10:15:12;97683.03;;;16.92;96.69
14273;BME280;7220;49.450;11.052;2023-05-10T10:19:13;97677.81;;;17.31;93.94
14273;BME280;7220;49.450;11.052;2023-05-10T10:23:13;97670.47;;;17.43;90.89
14273;BME280;7220;49.450;11.052;2023-05-10T10:27:24;97668.13;;;17.69;87.31
14273;BME280;7220;49.450;11.052;2023-05-10T10:35:29;97673.53;;;18.08;81.61
14273;BME280;7220;49.450;11.052;2023-05-10T10:39:30;97668.56;;;17.94;81.39
14273;BME280;7220;49.450;11.052;2023-05-10T10:43:30;97678.84;;;17.89;80.84
14273;BME280;7220;49.450;11.052;2023-05-10T10:47:34;97679.69;;;17.79;79.94
14273;BME280;7220;49.450;11.052;2023-05-10T10:51:40;97680.53;;;17.60;78.93
14273;BME280;7220;49.450;11.052;2023-05-10T10:56:12;97677.28;;;17.57;77.62
14273;BME280;7220;49.450;11.052;2023-05-10T11:00:31;97681.66;;;17.48;78.45
14273;BME280;7220;49.450;11.052;2023-05-10T11:04:41;97683.94;;;17.53;75.69
14273;BME280;7220;49.450;11.052;2023-05-10T11:08:43;97680.28;;;17.54;75.39
14273;BME280;7220;49.450;11.052;2023-05-10T11:13:00;97678.72;;;17.71;76.20
14273;BME280;7220;49.450;11.052;2023-05-10T11:17:01;97687.06;;;17.87;75.73
14273;BME280;7220;49.450;11.052;2023-05-10T11:21:02;97688.78;;;18.08;74.74
14273;BME280;7220;49.450;11.052;2023-05-10T11:25:05;97684.25;;;18.18;74.26
14273;BME280;7220;49.450;11.052;2023-05-10T11:29:06;97677.88;;;18.29;72.91
14273;BME280;7220;49.450;11.052;2023-05-10T11:33:07;97684.25;;;18.38;71.95
14273;BME280;7220;49.450;11.052;2023-05-10T11:37:08;97679.47;;;18.12;73.27
14273;BME280;7220;49.450;11.052;2023-05-10T11:41:09;97695.88;;;17.99;73.75
14273;BME280;7220;49.450;11.052;2023-05-10T11:45:12;97687.53;;;18.12;73.30
14273;BME280;7220;49.450;11.052;2023-05-10T11:49:13;97691.91;;;18.03;74.50
14273;BME280;7220;49.450;11.052;2023-05-10T11:53:13;97688.78;;;18.08;74.96
14273;BME280;7220;49.450;11.052;2023-05-10T11:57:13;97699.84;;;18.05;75.02
14273;BME280;7220;49.450;11.052;2023-05-10T12:01:14;97700.41;;;17.99;76.33
14273;BME280;7220;49.450;11.052;2023-05-10T12:05:14;97702.47;;;17.95;77.68
14273;BME280;7220;49.450;11.052;2023-05-10T12:09:15;97698.97;;;17.94;77.86
14273;BME280;7220;49.450;11.052;2023-05-10T12:13:16;97703.22;;;17.97;77.67
14273;BME280;7220;49.450;11.052;2023-05-10T12:17:16;97707.03;;;17.94;77.86
14273;BME280;7220;49.450;11.052;2023-05-10T12:21:18;97699.78;;;17.95;77.37
14273;BME280;7220;49.450;11.052;2023-05-10T12:25:20;97703.69;;;18.02;77.02
14273;BME280;7220;49.450;11.052;2023-05-10T12:29:20;97701.41;;;18.07;76.54
14273;BME280;7220;49.450;11.052;2023-05-10T12:33:21;97704.09;;;18.07;75.35
14273;BME280;7220;49.450;11.052;2023-05-10T12:37:24;97699.41;;;18.09;74.18
14273;BME280;7220;49.450;11.052;2023-05-10T12:41:27;97701.53;;;18.25;71.10
14273;BME280;7220;49.450;11.052;2023-05-10T12:45:29;97691.34;;;18.19;71.25
14273;BME280;7220;49.450;11.052;2023-05-10T12:49:29;97702.22;;;18.27;71.21
14273;BME280;7220;49.450;11.052;2023-05-10T12:53:30;97697.56;;;18.29;70.19
14273;BME280;7220;49.450;11.052;2023-05-10T12:57:31;97698.53;;;18.19;70.74
14273;BME280;7220;49.450;11.052;2023-05-10T13:01:31;97703.50;;;18.33;71.95
14273;BME280;7220;49.450;11.052;2023-05-10T13:05:35;97703.50;;;18.33;72.59
14273;BME280;7220;49.450;11.052;2023-05-10T13:09:35;97694.81;;;18.49;72.58
14273;BME280;7220;49.450;11.052;2023-05-10T13:13:35;97691.50;;;18.75;72.82
14273;BME280;7220;49.450;11.052;2023-05-10T13:17:36;97703.59;;;19.08;72.09
14273;BME280;7220;49.450;11.052;2023-05-10T13:21:39;97693.91;;;19.16;71.02
14273;BME280;7220;49.450;11.052;2023-05-10T13:25:40;97696.50;;;19.07;71.39
14273;BME280;7220;49.450;11.052;2023-05-10T13:29:41;97710.28;;;19.04;71.84
14273;BME280;7220;49.450;11.052;2023-05-10T13:33:41;97712.44;;;18.81;72.14
14273;BME280;7220;49.450;11.052;2023-05-10T13:37:41;97693.63;;;18.71;71.94
14273;BME280;7220;49.450;11.052;2023-05-10T13:41:42;97695.19;;;18.74;72.37
14273;BME280;7220;49.450;11.052;2023-05-10T13:45:42;97698.59;;;18.76;72.91
14273;BME280;7220;49.450;11.052;2023-05-10T13:49:42;97690.34;;;18.77;72.91
14273;BME280;7220;49.450;11.052;2023-05-10T13:53:43;97688.91;;;18.93;72.48
14273;BME280;7220;49.450;11.052;2023-05-10T13:57:43;97674.94;;;19.07;71.83
14273;BME280;7220;49.450;11.052;2023-05-10T14:01:43;97680.53;;;19.24;68.60
14273;BME280;7220;49.450;11.052;2023-05-10T14:05:44;97685.53;;;19.19;66.23
14273;BME280;7220;49.450;11.052;2023-05-10T14:09:45;97691.63;;;19.21;64.67
14273;BME280;7220;49.450;11.052;2023-05-10T14:13:45;97692.38;;;19.13;65.75
14273;BME280;7220;49.450;11.052;2023-05-10T14:17:46;97707.44;;;19.06;66.50
14273;BME280;7220;49.450;11.052;2023-05-10T14:21:46;97693.06;;;19.15;67.21
14273;BME280;7220;49.450;11.052;2023-05-10T14:25:46;97694.41;;;19.01;67.78
14273;BME280;7220;49.450;11.052;2023-05-10T14:29:47;97696.25;;;18.91;67.67
14273;BME280;7220;49.450;11.052;2023-05-10T14:33:47;97704.78;;;18.86;68.10
14273;BME280;7220;49.450;11.052;2023-05-10T14:37:47;97689.09;;;18.82;69.03
14273;BME280;7220;49.450;11.052;2023-05-10T14:41:48;97687.81;;;18.76;68.96
14273;BME280;7220;49.450;11.052;2023-05-10T14:45:48;97697.72;;;18.75;70.49
14273;BME280;7220;49.450;11.052;2023-05-10T14:49:49;97691.22;;;18.78;69.90
14273;BME280;7220;49.450;11.052;2023-05-10T14:53:49;97687.78;;;18.86;68.37
14273;BME280;7220;49.450;11.052;2023-05-10T14:57:49;97696.25;;;18.91;68.04
14273;BME280;7220;49.450;11.052;2023-05-10T15:01:50;97693.47;;;18.92;68.65
14273;BME280;7220;49.450;11.052;2023-05-10T15:05:51;97714.56;;;18.77;68.76
14273;BME280;7220;49.450;11.052;2023-05-10T15:09:52;97710.09;;;18.58;70.96
14273;BME280;7220;49.450;11.052;2023-05-10T15:13:52;97732.25;;;18.42;72.58
14273;BME280;7220;49.450;11.052;2023-05-10T15:17:53;97738.03;;;18.18;69.08
14273;BME280;7220;49.450;11.052;2023-05-10T15:21:53;97744.00;;;18.02;67.00
14273;BME280;7220;49.450;11.052;2023-05-10T15:25:53;97732.78;;;17.87;66.32
14273;BME280;7220;49.450;11.052;2023-05-10T15:29:55;97742.81;;;17.75;66.18
14273;BME280;7220;49.450;11.052;2023-05-10T15:33:57;97755.25;;;17.66;65.67
14273;BME280;7220;49.450;11.052;2023-05-10T15:37:58;97750.22;;;17.52;65.27
14273;BME280;7220;49.450;11.052;2023-05-10T15:41:59;97749.81;;;17.57;64.96
14273;BME280;7220;49.450;11.052;2023-05-10T15:45:59;97759.44;;;17.49;65.68
14273;BME280;7220;49.450;11.052;2023-05-10T15:49:59;97754.47;;;17.55;65.91
14273;BME280;7220;49.450;11.052;2023-05-10T15:54:00;97750.13;;;17.54;65.94
14273;BME280;7220;49.450;11.052;2023-05-10T15:58:01;97760.38;;;17.39;66.81
14273;BME280;7220;49.450;11.052;2023-05-10T16:02:02;97760.97;;;17.42;66.16
14273;BME280;7220;49.450;11.052;2023-05-10T16:06:03;97766.59;;;17.39;67.25
14273;BME280;7220;49.450;11.052;2023-05-10T16:10:04;97758.81;;;17.36;68.49
14273;BME280;7220;49.450;11.052;2023-05-10T16:14:05;97760.25;;;17.40;69.86
14273;BME280;7220;49.450;11.052;2023-05-10T16:18:06;97770.41;;;17.37;71.09
14273;BME280;7220;49.450;11.052;2023-05-10T16:22:06;97769.81;;;17.23;72.69
14273;BME280;7220;49.450;11.052;2023-05-10T16:26:06;97779.59;;;17.03;73.75
14273;BME280;7220;49.450;11.052;2023-05-10T16:30:08;97777.06;;;17.01;73.72
14273;BME280;7220;49.450;11.052;2023-05-10T16:34:08;97774.50;;;17.00;73.93
14273;BME280;7220;49.450;11.052;2023-05-10T16:38:09;97776.06;;;16.81;75.04
14273;BME280;7220;49.450;11.052;2023-05-10T16:42:09;97777.97;;;16.69;76.50
14273;BME280;7220;49.450;11.052;2023-05-10T16:46:10;97777.19;;;16.58;76.54
14273;BME280;7220;49.450;11.052;2023-05-10T16:50:11;97781.25;;;16.52;77.90
14273;BME280;7220;49.450;11.052;2023-05-10T16:54:11;97793.72;;;16.42;77.69
14273;BME280;7220;49.450;11.052;2023-05-10T16:58:11;97795.22;;;16.34;77.72
14273;BME280;7220;49.450;11.052;2023-05-10T17:02:13;97801.09;;;16.28;77.93
14273;BME280;7220;49.450;11.052;2023-05-10T17:06:13;97789.06;;;16.22;78.74
14273;BME280;7220;49.450;11.052;2023-05-10T17:10:13;97805.66;;;16.16;79.71
14273;BME280;7220;49.450;11.052;2023-05-10T17:14:14;97807.47;;;16.16;79.21
14273;BME280;7220;49.450;11.052;2023-05-10T17:18:14;97808.94;;;16.20;78.43
14273;BME280;7220;49.450;11.052;2023-05-10T17:22:15;97825.53;;;16.14;79.25
14273;BME280;7220;49.450;11.052;2023-05-10T17:26:15;97821.00;;;16.14;79.13
14273;BME280;7220;49.450;11.052;2023-05-10T17:30:16;97826.28;;;16.04;79.93
14273;BME280;7220;49.450;11.052;2023-05-10T17:34:21;97819.72;;;15.97;79.78
14273;BME280;7220;49.450;11.052;2023-05-10T17:38:21;97819.25;;;15.92;80.36
14273;BME280;7220;49.450;11.052;2023-05-10T17:42:22;97827.78;;;15.86;80.65
14273;BME280;7220;49.450;11.052;2023-05-10T17:46:22;97842.75;;;15.88;81.59
14273;BME280;7220;49.450;11.052;2023-05-10T17:50:22;97840.22;;;15.87;82.17
14273;BME280;7220;49.450;11.052;2023-05-10T17:54:25;97849.09;;;15.65;83.75
14273;BME280;7220;49.450;11.052;2023-05-10T17:58:26;97843.25;;;15.59;85.50
14273;BME280;7220;49.450;11.052;2023-05-10T18:02:27;97849.13;;;15.53;85.39
14273;BME280;7220;49.450;11.052;2023-05-10T18:06:27;97865.41;;;15.50;86.92
14273;BME280;7220;49.450;11.052;2023-05-10T18:10:27;97864.81;;;15.46;87.50
14273;BME280;7220;49.450;11.052;2023-05-10T18:14:27;97867.13;;;15.51;88.13
14273;BME280;7220;49.450;11.052;2023-05-10T18:18:28;97870.78;;;15.50;89.42
14273;BME280;7220;49.450;11.052;2023-05-10T18:22:28;97866.41;;;15.38;91.04
14273;BME280;7220;49.450;11.052;2023-05-10T18:26:28;97865.28;;;15.40;91.03
14273;BME280;7220;49.450;11.052;2023-05-10T18:30:29;97868.56;;;15.33;92.09
14273;BME280;7220;49.450;11.052;2023-05-10T18:34:29;97874.31;;;15.39;91.92
14273;BME280;7220;49.450;11.052;2023-05-10T18:38:30;97874.78;;;15.33;92.25
14273;BME280;7220;49.450;11.052;2023-05-10T18:42:30;97867.34;;;15.25;93.19
14273;BME280;7220;49.450;11.052;2023-05-10T18:46:30;97871.38;;;15.31;92.57
14273;BME280;7220;49.450;11.052;2023-05-10T18:50:31;97879.78;;;15.38;92.11
14273;BME280;7220;49.450;11.052;2023-05-10T18:54:31;97880.75;;;15.37;92.43
14273;BME280;7220;49.450;11.052;2023-05-10T18:58:32;97884.63;;;15.33;93.10
14273;BME280;7220;49.450;11.052;2023-05-10T19:02:38;97883.63;;;15.22;93.21
14273;BME280;7220;49.450;11.052;2023-05-10T19:06:39;97887.75;;;15.15;94.53
14273;BME280;7220;49.450;11.052;2023-05-10T19:10:40;97886.31;;;15.11;95.16
14273;BME280;7220;49.450;11.052;2023-05-10T19:14:41;97893.13;;;15.15;94.56
14273;BME280;7220;49.450;11.052;2023-05-10T19:18:42;97898.59;;;15.13;94.93
14273;BME280;7220;49.450;11.052;2023-05-10T19:22:42;97911.13;;;15.13;95.94
14273;BME280;7220;49.450;11.052;2023-05-10T19:26:43;97900.56;;;15.23;95.53
14273;BME280;7220;49.450;11.052;2023-05-10T19:30:43;97905.31;;;15.19;95.15
14273;BME280;7220;49.450;11.052;2023-05-10T19:34:43;97915.63;;;15.12;96.45
14273;BME280;7220;49.450;11.052;2023-05-10T19:38:44;97918.44;;;15.11;97.82
14273;BME280;7220;49.450;11.052;2023-05-10T19:42:44;97907.94;;;15.08;98.12
14273;BME280;7220;49.450;11.052;2023-05-10T19:46:44;97905.78;;;15.13;99.00
14273;BME280;7220;49.450;11.052;2023-05-10T19:50:45;97913.22;;;15.21;99.02
14273;BME280;7220;49.450;11.052;2023-05-10T19:54:45;97908.22;;;15.16;100.00
14273;BME280;7220;49.450;11.052;2023-05-10T19:58:45;97906.38;;;15.05;100.00
14273;BME280;7220;49.450;11.052;2023-05-10T20:02:46;97906.00;;;15.10;100.00
14273;BME280;7220;49.450;11.052;2023-05-10T20:06:46;97910.34;;;14.99;100.00
14273;BME280;7220;49.450;11.052;2023-05-10T20:10:46;97903.69;;;14.94;100.00
14273;BME280;7220;49.450;11.052;2023-05-10T20:14:46;97908.66;;;14.98;100.00
14273;BME280;7220;49.450;11.052;2023-05-10T20:18:47;97909.38;;;14.89;100.00
14273;BME280;7220;49.450;11.052;2023-05-10T20:22:47;97915.44;;;14.91;100.00
14273;BME280;7220;49.450;11.052;2023-05-10T20:26:47;97906.19;;;14.84;100.00
14273;BME280;7220;49.450;11.052;2023-05-10T20:30:51;97920.16;;;14.88;100.00
14273;BME280;7220;49.450;11.052;2023-05-10T20:34:52;97907.75;;;14.75;100.00
14273;BME280;7220;49.450;11.052;2023-05-10T20:38:52;97900.59;;;14.87;100.00
14273;BME280;7220;49.450;11.052;2023-05-10T20:42:52;97913.00;;;14.88;100.00
14273;BME280;7220;49.450;11.052;2023-05-10T20:46:53;97904.13;;;14.88;100.00
14273;BME280;7220;49.450;11.052;2023-05-10T20:50:53;97911.06;;;14.90;100.00
14273;BME280;7220;49.450;11.052;2023-05-10T20:54:53;97911.84;;;15.04;100.00
14273;BME280;7220;49.450;11.052;2023-05-10T20:58:54;97905.69;;;14.90;100.00
14273;BME280;7220;49.450;11.052;2023-05-10T21:02:54;97904.03;;;14.89;100.00
14273;BME280;7220;49.450;11.052;2023-05-10T21:06:54;97911.19;;;14.89;100.00
14273;BME280;7220;49.450;11.052;2023-05-10T21:10:56;97907.75;;;14.87;100.00
14273;BME280;7220;49.450;11.052;2023-05-10T21:14:56;97896.16;;;14.75;100.00
14273;BME280;7220;49.450;11.052;2023-05-10T21:18:56;97894.75;;;14.82;100.00
14273;BME280;7220;49.450;11.052;2023-05-10T21:22:56;97890.09;;;15.08;100.00
14273;BME280;7220;49.450;11.052;2023-05-10T21:26:57;97901.13;;;15.04;100.00
14273;BME280;7220;49.450;11.052;2023-05-10T21:30:57;97893.34;;;15.01;100.00
14273;BME280;7220;49.450;11.052;2023-05-10T21:34:57;97897.00;;;15.11;100.00
14273;BME280;7220;49.450;11.052;2023-05-10T21:38:58;97893.25;;;15.02;100.00
14273;BME280;7220;49.450;11.052;2023-05-10T21:42:58;97889.91;;;14.98;100.00
14273;BME280;7220;49.450;11.052;2023-05-10T21:46:58;97884.22;;;15.03;100.00
14273;BME280;7220;49.450;11.052;2023-05-10T21:50:59;97884.59;;;15.10;100.00
14273;BME280;7220;49.450;11.052;2023-05-10T21:55:00;97893.38;;;15.12;100.00
14273;BME280;7220;49.450;11.052;2023-05-10T21:59:01;97895.53;;;15.07;100.00
14273;BME280;7220;49.450;11.052;2023-05-10T22:03:01;97878.03;;;15.03;100.00
14273;BME280;7220;49.450;11.052;2023-05-10T22:07:01;97887.28;;;15.10;100.00
14273;BME280;7220;49.450;11.052;2023-05-10T22:11:02;97887.25;;;14.98;100.00
14273;BME280;7220;49.450;11.052;2023-05-10T22:15:03;97883.09;;;14.94;100.00
14273;BME280;7220;49.450;11.052;2023-05-10T22:19:03;97890.41;;;14.92;100.00
14273;BME280;7220;49.450;11.052;2023-05-10T22:23:03;97895.78;;;15.04;100.00
14273;BME280;7220;49.450;11.052;2023-05-10T22:27:04;97890.19;;;15.07;100.00
14273;BME280;7220;49.450;11.052;2023-05-10T22:31:08;97889.97;;;15.10;100.00
14273;BME280;7220;49.450;11.052;2023-05-10T22:35:10;97885.56;;;14.97;100.00
14273;BME280;7220;49.450;11.052;2023-05-10T22:39:10;97884.97;;;15.05;100.00
14273;BME280;7220;49.450;11.052;2023-05-10T22:43:10;97884.81;;;15.07;100.00
14273;BME280;7220;49.450;11.052;2023-05-10T22:47:11;97884.22;;;15.03;100.00
14273;BME280;7220;49.450;11.052;2023-05-10T22:51:11;97894.56;;;14.96;100.00
14273;BME280;7220;49.450;11.052;2023-05-10T22:55:12;97892.22;;;14.92;100.00
14273;BME280;7220;49.450;11.052;2023-05-10T22:59:13;97886.13;;;14.90;100.00
14273;BME280;7220;49.450;11.052;2023-05-10T23:03:13;97893.75;;;14.83;100.00
14273;BME280;7220;49.450;11.052;2023-05-10T23:07:13;97891.63;;;14.88;100.00
14273;BME280;7220;49.450;11.052;2023-05-10T23:11:14;97889.75;;;14.77;100.00
14273;BME280;7220;49.450;11.052;2023-05-10T23:15:14;97895.19;;;14.76;100.00
14273;BME280;7220;49.450;11.052;2023-05-10T23:19:14;97908.94;;;14.71;100.00
14273;BME280;7220;49.450;11.052;2023-05-10T23:23:15;97894.09;;;14.67;100.00
14273;BME280;7220;49.450;11.052;2023-05-10T23:27:15;97900.72;;;14.61;100.00
14273;BME280;7220;49.450;11.052;2023-05-10T23:31:16;97898.03;;;14.61;100.00
14273;BME280;7220;49.450;11.052;2023-05-10T23:35:16;97910.56;;;14.61;100.00
14273;BME280;7220;49.450;11.052;2023-05-10T23:39:16;97901.47;;;14.39;100.00
14273;BME280;7220;49.450;11.052;2023-05-10T23:43:16;97899.13;;;14.34;100.00
14273;BME280;7220;49.450;11.052;2023-05-10T23:47:18;97908.13;;;14.33;100.00
14273;BME280;7220;49.450;11.052;2023-05-10T23:51:19;97904.63;;;14.20;100.00
14273;BME280;7220;49.450;11.052;2023-05-10T23:55:19;97895.78;;;14.19;100.00
14273;BME280;7220;49.450;11.052;2023-05-10T23:59:19;97884.47;;;14.16;100.00
